sensor_id;sensor_type;location;lat;lon;timestamp;P1;durP1;ratioP1;P2;durP2;ratioP2
29416;SDS011;28421;51.030;4.006;2023-02-03T00:00:04;14.73;;;4.90;;
29416;SDS011;28421;51.030;4.006;2023-02-03T00:02:36;14.00;;;4.65;;
29416;SDS011;28421;51.030;4.006;2023-02-03T00:05:01;12.05;;;4.00;;
29416;SDS011;28421;51.030;4.006;2023-02-03T00:07:27;14.30;;;4.78;;
29416;SDS011;28421;51.030;4.006;2023-02-03T00:09:54;8.50;;;3.75;;
29416;SDS011;28421;51.030;4.006;2023-02-03T00:12:21;8.52;;;3.95;;
29416;SDS011;28421;51.030;4.006;2023-02-03T00:14:46;17.30;;;4.25;;
29416;SDS011;28421;51.030;4.006;2023-02-03T00:17:12;8.95;;;3.92;;
29416;SDS011;28421;51.030;4.006;2023-02-03T00:19:39;13.23;;;4.40;;
29416;SDS011;28421;51.030;4.006;2023-02-03T00:22:04;6.85;;;3.33;;
29416;SDS011;28421;51.030;4.006;2023-02-03T00:24:30;16.35;;;4.55;;
29416;SDS011;28421;51.030;4.006;2023-02-03T00:26:55;12.45;;;4.00;;
29416;SDS011;28421;51.030;4.006;2023-02-03T00:29:21;19.90;;;3.22;;
29416;SDS011;28421;51.030;4.006;2023-02-03T00:31:50;16.08;;;3.47;;
29416;SDS011;28421;51.030;4.006;2023-02-03T05:35:43;8.85;;;1.75;;
29416;SDS011;28421;51.030;4.006;2023-02-03T05:38:08;9.00;;;1.95;;
29416;SDS011;28421;51.030;4.006;2023-02-03T05:40:34;7.80;;;1.48;;
29416;SDS011;28421;51.030;4.006;2023-02-03T05:43:18;6.63;;;1.53;;
29416;SDS011;28421;51.030;4.006;2023-02-03T05:45:43;5.68;;;1.75;;
29416;SDS011;28421;51.030;4.006;2023-02-03T05:48:09;7.88;;;1.38;;
29416;SDS011;28421;51.030;4.006;2023-02-03T05:50:34;6.30;;;1.58;;
29416;SDS011;28421;51.030;4.006;2023-02-03T05:53:06;6.03;;;1.80;;
29416;SDS011;28421;51.030;4.006;2023-02-03T05:55:33;7.50;;;1.77;;
29416;SDS011;28421;51.030;4.006;2023-02-03T05:57:58;12.20;;;1.95;;
29416;SDS011;28421;51.030;4.006;2023-02-03T06:00:25;8.25;;;1.63;;
29416;SDS011;28421;51.030;4.006;2023-02-03T06:02:51;6.60;;;1.83;;
29416;SDS011;28421;51.030;4.006;2023-02-03T06:05:21;4.32;;;1.80;;
29416;SDS011;28421;51.030;4.006;2023-02-03T06:07:47;5.70;;;1.67;;
29416;SDS011;28421;51.030;4.006;2023-02-03T06:10:13;9.48;;;1.95;;
29416;SDS011;28421;51.030;4.006;2023-02-03T06:12:39;5.07;;;1.85;;
29416;SDS011;28421;51.030;4.006;2023-02-03T06:15:05;6.28;;;1.75;;
29416;SDS011;28421;51.030;4.006;2023-02-03T06:17:30;3.22;;;1.77;;
29416;SDS011;28421;51.030;4.006;2023-02-03T06:19:56;7.55;;;1.73;;
29416;SDS011;28421;51.030;4.006;2023-02-03T06:22:21;7.70;;;1.75;;
29416;SDS011;28421;51.030;4.006;2023-02-03T06:24:47;5.93;;;1.35;;
29416;SDS011;28421;51.030;4.006;2023-02-03T06:27:13;4.40;;;1.58;;
29416;SDS011;28421;51.030;4.006;2023-02-03T06:29:39;1.92;;;1.45;;
29416;SDS011;28421;51.030;4.006;2023-02-03T06:32:06;13.60;;;2.05;;
29416;SDS011;28421;51.030;4.006;2023-02-03T06:34:31;5.90;;;1.60;;
29416;SDS011;28421;51.030;4.006;2023-02-03T06:36:57;4.53;;;1.52;;
29416;SDS011;28421;51.030;4.006;2023-02-03T06:39:22;6.68;;;1.55;;
29416;SDS011;28421;51.030;4.006;2023-02-03T06:41:48;8.68;;;1.75;;
29416;SDS011;28421;51.030;4.006;2023-02-03T06:44:15;10.40;;;1.95;;
29416;SDS011;28421;51.030;4.006;2023-02-03T06:46:40;6.93;;;1.98;;
29416;SDS011;28421;51.030;4.006;2023-02-03T06:49:06;5.85;;;1.63;;
29416;SDS011;28421;51.030;4.006;2023-02-03T06:51:31;6.15;;;1.77;;
29416;SDS011;28421;51.030;4.006;2023-02-03T06:53:57;9.80;;;1.95;;
29416;SDS011;28421;51.030;4.006;2023-02-03T06:56:22;9.18;;;1.90;;
29416;SDS011;28421;51.030;4.006;2023-02-03T06:58:48;5.28;;;1.85;;
29416;SDS011;28421;51.030;4.006;2023-02-03T07:01:13;12.32;;;1.55;;
29416;SDS011;28421;51.030;4.006;2023-02-03T07:03:39;3.20;;;1.70;;
29416;SDS011;28421;51.030;4.006;2023-02-03T07:06:04;4.78;;;1.90;;
29416;SDS011;28421;51.030;4.006;2023-02-03T07:08:30;6.55;;;1.95;;
29416;SDS011;28421;51.030;4.006;2023-02-03T07:10:56;2.42;;;1.20;;
29416;SDS011;28421;51.030;4.006;2023-02-03T07:13:21;4.78;;;1.60;;
29416;SDS011;28421;51.030;4.006;2023-02-03T07:15:46;7.03;;;1.48;;
29416;SDS011;28421;51.030;4.006;2023-02-03T07:18:12;2.83;;;1.90;;
29416;SDS011;28421;51.030;4.006;2023-02-03T07:20:37;5.70;;;1.63;;
29416;SDS011;28421;51.030;4.006;2023-02-03T07:23:03;3.63;;;1.90;;
29416;SDS011;28421;51.030;4.006;2023-02-03T07:25:29;3.80;;;1.80;;
29416;SDS011;28421;51.030;4.006;2023-02-03T07:27:55;10.70;;;1.90;;
29416;SDS011;28421;51.030;4.006;2023-02-03T07:30:20;7.57;;;2.13;;
29416;SDS011;28421;51.030;4.006;2023-02-03T07:32:47;11.40;;;2.13;;
29416;SDS011;28421;51.030;4.006;2023-02-03T07:35:14;3.55;;;1.40;;
29416;SDS011;28421;51.030;4.006;2023-02-03T07:37:40;5.95;;;1.45;;
29416;SDS011;28421;51.030;4.006;2023-02-03T07:40:06;4.47;;;1.50;;
29416;SDS011;28421;51.030;4.006;2023-02-03T07:42:32;3.03;;;1.30;;
29416;SDS011;28421;51.030;4.006;2023-02-03T07:44:58;2.13;;;1.60;;
29416;SDS011;28421;51.030;4.006;2023-02-03T07:47:23;12.85;;;3.13;;
29416;SDS011;28421;51.030;4.006;2023-02-03T07:49:49;9.73;;;2.15;;
29416;SDS011;28421;51.030;4.006;2023-02-03T07:52:14;9.35;;;1.80;;
29416;SDS011;28421;51.030;4.006;2023-02-03T07:54:40;3.92;;;1.42;;
29416;SDS011;28421;51.030;4.006;2023-02-03T07:57:05;7.35;;;1.30;;
29416;SDS011;28421;51.030;4.006;2023-02-03T07:59:30;9.40;;;1.92;;
29416;SDS011;28421;51.030;4.006;2023-02-03T08:01:56;3.25;;;1.45;;
29416;SDS011;28421;51.030;4.006;2023-02-03T08:04:21;5.57;;;1.75;;
29416;SDS011;28421;51.030;4.006;2023-02-03T08:06:48;8.48;;;1.67;;
29416;SDS011;28421;51.030;4.006;2023-02-03T08:09:14;5.78;;;1.55;;
29416;SDS011;28421;51.030;4.006;2023-02-03T08:11:39;12.02;;;1.98;;
29416;SDS011;28421;51.030;4.006;2023-02-03T08:14:05;4.72;;;1.80;;
29416;SDS011;28421;51.030;4.006;2023-02-03T08:16:30;10.90;;;2.38;;
29416;SDS011;28421;51.030;4.006;2023-02-03T08:18:56;8.32;;;2.17;;
29416;SDS011;28421;51.030;4.006;2023-02-03T08:21:22;4.40;;;1.48;;
29416;SDS011;28421;51.030;4.006;2023-02-03T08:23:47;7.60;;;1.70;;
29416;SDS011;28421;51.030;4.006;2023-02-03T08:26:13;5.20;;;1.95;;
29416;SDS011;28421;51.030;4.006;2023-02-03T08:28:38;6.07;;;2.05;;
29416;SDS011;28421;51.030;4.006;2023-02-03T08:31:10;5.47;;;1.70;;
29416;SDS011;28421;51.030;4.006;2023-02-03T08:33:36;6.75;;;1.98;;
29416;SDS011;28421;51.030;4.006;2023-02-03T08:36:02;7.80;;;1.65;;
29416;SDS011;28421;51.030;4.006;2023-02-03T08:38:29;5.88;;;1.60;;
29416;SDS011;28421;51.030;4.006;2023-02-03T08:40:55;8.20;;;4.32;;
29416;SDS011;28421;51.030;4.006;2023-02-03T08:43:21;8.43;;;1.48;;
29416;SDS011;28421;51.030;4.006;2023-02-03T08:45:46;11.43;;;1.73;;
29416;SDS011;28421;51.030;4.006;2023-02-03T08:48:11;7.95;;;2.20;;
29416;SDS011;28421;51.030;4.006;2023-02-03T08:50:39;2.50;;;1.73;;
29416;SDS011;28421;51.030;4.006;2023-02-03T08:53:06;8.60;;;1.80;;
29416;SDS011;28421;51.030;4.006;2023-02-03T08:55:33;3.65;;;1.60;;
29416;SDS011;28421;51.030;4.006;2023-02-03T08:57:58;9.90;;;2.20;;
29416;SDS011;28421;51.030;4.006;2023-02-03T09:00:24;5.18;;;2.20;;
29416;SDS011;28421;51.030;4.006;2023-02-03T09:02:50;3.15;;;1.77;;
29416;SDS011;28421;51.030;4.006;2023-02-03T09:05:15;7.78;;;2.55;;
29416;SDS011;28421;51.030;4.006;2023-02-03T09:07:42;12.68;;;2.40;;
29416;SDS011;28421;51.030;4.006;2023-02-03T09:10:08;5.90;;;1.75;;
29416;SDS011;28421;51.030;4.006;2023-02-03T09:12:34;10.80;;;2.88;;
29416;SDS011;28421;51.030;4.006;2023-02-03T09:15:00;5.63;;;1.92;;
29416;SDS011;28421;51.030;4.006;2023-02-03T09:17:25;6.53;;;2.28;;
29416;SDS011;28421;51.030;4.006;2023-02-03T09:19:52;8.48;;;2.20;;
29416;SDS011;28421;51.030;4.006;2023-02-03T09:22:17;4.40;;;1.90;;
29416;SDS011;28421;51.030;4.006;2023-02-03T09:24:43;7.45;;;1.83;;
29416;SDS011;28421;51.030;4.006;2023-02-03T09:27:08;11.98;;;2.10;;
29416;SDS011;28421;51.030;4.006;2023-02-03T09:29:34;4.13;;;1.77;;
29416;SDS011;28421;51.030;4.006;2023-02-03T09:31:59;6.88;;;2.22;;
29416;SDS011;28421;51.030;4.006;2023-02-03T09:34:30;4.63;;;1.50;;
29416;SDS011;28421;51.030;4.006;2023-02-03T09:36:56;5.18;;;2.28;;
29416;SDS011;28421;51.030;4.006;2023-02-03T09:39:22;11.00;;;2.72;;
29416;SDS011;28421;51.030;4.006;2023-02-03T09:41:50;11.48;;;2.00;;
29416;SDS011;28421;51.030;4.006;2023-02-03T09:44:49;4.70;;;2.40;;
29416;SDS011;28421;51.030;4.006;2023-02-03T09:47:26;8.07;;;2.50;;
29416;SDS011;28421;51.030;4.006;2023-02-03T09:50:00;14.35;;;3.33;;
29416;SDS011;28421;51.030;4.006;2023-02-03T09:57:54;7.32;;;2.85;;
29416;SDS011;28421;51.030;4.006;2023-02-03T10:00:43;8.93;;;2.50;;
29416;SDS011;28421;51.030;4.006;2023-02-03T10:14:02;9.15;;;2.30;;
29416;SDS011;28421;51.030;4.006;2023-02-03T10:19:18;9.77;;;2.25;;
29416;SDS011;28421;51.030;4.006;2023-02-03T10:21:49;12.40;;;2.28;;
29416;SDS011;28421;51.030;4.006;2023-02-03T10:24:24;7.03;;;2.38;;
29416;SDS011;28421;51.030;4.006;2023-02-03T10:27:14;9.82;;;2.25;;
29416;SDS011;28421;51.030;4.006;2023-02-03T10:29:42;11.52;;;2.90;;
29416;SDS011;28421;51.030;4.006;2023-02-03T10:32:08;8.45;;;1.80;;
29416;SDS011;28421;51.030;4.006;2023-02-03T10:34:35;11.30;;;2.55;;
29416;SDS011;28421;51.030;4.006;2023-02-03T10:37:11;7.10;;;2.95;;
29416;SDS011;28421;51.030;4.006;2023-02-03T10:39:52;13.75;;;2.47;;
29416;SDS011;28421;51.030;4.006;2023-02-03T10:42:18;7.40;;;2.55;;
29416;SDS011;28421;51.030;4.006;2023-02-03T10:44:56;10.38;;;2.72;;
29416;SDS011;28421;51.030;4.006;2023-02-03T10:47:24;2.50;;;1.85;;
29416;SDS011;28421;51.030;4.006;2023-02-03T10:50:04;9.73;;;3.17;;
29416;SDS011;28421;51.030;4.006;2023-02-03T10:52:35;4.85;;;2.67;;
29416;SDS011;28421;51.030;4.006;2023-02-03T10:57:51;3.85;;;2.33;;
29416;SDS011;28421;51.030;4.006;2023-02-03T11:03:03;8.00;;;2.72;;
29416;SDS011;28421;51.030;4.006;2023-02-03T11:05:31;11.55;;;2.70;;
29416;SDS011;28421;51.030;4.006;2023-02-03T11:07:56;14.80;;;3.00;;
29416;SDS011;28421;51.030;4.006;2023-02-03T11:10:35;8.60;;;3.20;;
29416;SDS011;28421;51.030;4.006;2023-02-03T11:15:50;16.13;;;2.45;;
29416;SDS011;28421;51.030;4.006;2023-02-03T11:21:17;7.20;;;3.08;;
29416;SDS011;28421;51.030;4.006;2023-02-03T11:23:49;9.90;;;3.80;;
29416;SDS011;28421;51.030;4.006;2023-02-03T11:26:17;6.57;;;2.67;;
29416;SDS011;28421;51.030;4.006;2023-02-03T11:28:48;7.57;;;2.30;;
29416;SDS011;28421;51.030;4.006;2023-02-03T11:31:16;6.38;;;2.70;;
29416;SDS011;28421;51.030;4.006;2023-02-03T11:33:45;7.85;;;2.72;;
29416;SDS011;28421;51.030;4.006;2023-02-03T11:36:12;6.32;;;2.15;;
29416;SDS011;28421;51.030;4.006;2023-02-03T11:38:38;4.38;;;2.17;;
29416;SDS011;28421;51.030;4.006;2023-02-03T11:41:08;3.70;;;2.00;;
29416;SDS011;28421;51.030;4.006;2023-02-03T11:43:40;10.50;;;2.10;;
29416;SDS011;28421;51.030;4.006;2023-02-03T11:46:05;5.05;;;1.98;;
29416;SDS011;28421;51.030;4.006;2023-02-03T11:56:31;10.65;;;2.40;;
29416;SDS011;28421;51.030;4.006;2023-02-03T12:02:01;5.32;;;2.20;;
29416;SDS011;28421;51.030;4.006;2023-02-03T12:18:04;4.00;;;1.60;;
29416;SDS011;28421;51.030;4.006;2023-02-03T12:20:40;9.05;;;1.45;;
29416;SDS011;28421;51.030;4.006;2023-02-03T12:23:33;1.63;;;1.00;;
29416;SDS011;28421;51.030;4.006;2023-02-03T12:26:20;4.20;;;1.60;;
29416;SDS011;28421;51.030;4.006;2023-02-03T12:29:12;11.35;;;2.20;;
29416;SDS011;28421;51.030;4.006;2023-02-03T12:34:49;2.95;;;1.30;;
29416;SDS011;28421;51.030;4.006;2023-02-03T12:42:52;10.98;;;1.83;;
29416;SDS011;28421;51.030;4.006;2023-02-03T12:45:28;5.63;;;1.42;;
29416;SDS011;28421;51.030;4.006;2023-02-03T12:47:57;7.28;;;1.75;;
29416;SDS011;28421;51.030;4.006;2023-02-03T12:50:42;2.90;;;1.35;;
29416;SDS011;28421;51.030;4.006;2023-02-03T12:53:13;2.30;;;1.35;;
29416;SDS011;28421;51.030;4.006;2023-02-03T12:56:02;2.50;;;1.77;;
29416;SDS011;28421;51.030;4.006;2023-02-03T13:06:29;5.93;;;1.30;;
29416;SDS011;28421;51.030;4.006;2023-02-03T13:11:53;4.55;;;1.27;;
29416;SDS011;28421;51.030;4.006;2023-02-03T13:17:41;4.22;;;1.25;;
29416;SDS011;28421;51.030;4.006;2023-02-03T13:20:24;4.32;;;1.52;;
29416;SDS011;28421;51.030;4.006;2023-02-03T13:22:55;7.28;;;2.08;;
29416;SDS011;28421;51.030;4.006;2023-02-03T13:25:26;5.97;;;1.98;;
29416;SDS011;28421;51.030;4.006;2023-02-03T13:36:59;3.92;;;1.55;;
29416;SDS011;28421;51.030;4.006;2023-02-03T13:42:34;6.03;;;2.28;;
29416;SDS011;28421;51.030;4.006;2023-02-03T13:45:11;1.95;;;1.30;;
29416;SDS011;28421;51.030;4.006;2023-02-03T13:47:46;7.13;;;2.30;;
29416;SDS011;28421;51.030;4.006;2023-02-03T13:50:17;6.38;;;1.27;;
29416;SDS011;28421;51.030;4.006;2023-02-03T13:52:51;7.15;;;1.70;;
29416;SDS011;28421;51.030;4.006;2023-02-03T13:55:28;3.80;;;1.60;;
29416;SDS011;28421;51.030;4.006;2023-02-03T13:57:54;9.18;;;1.77;;
29416;SDS011;28421;51.030;4.006;2023-02-03T14:01:04;4.85;;;1.45;;
29416;SDS011;28421;51.030;4.006;2023-02-03T14:03:15;3.92;;;1.63;;
29416;SDS011;28421;51.030;4.006;2023-02-03T14:05:44;5.88;;;1.58;;
29416;SDS011;28421;51.030;4.006;2023-02-03T14:13:52;5.65;;;2.15;;
29416;SDS011;28421;51.030;4.006;2023-02-03T14:16:22;6.72;;;1.70;;
29416;SDS011;28421;51.030;4.006;2023-02-03T14:18:48;7.53;;;1.65;;
29416;SDS011;28421;51.030;4.006;2023-02-03T14:21:18;6.78;;;1.80;;
29416;SDS011;28421;51.030;4.006;2023-02-03T14:23:48;6.65;;;2.13;;
29416;SDS011;28421;51.030;4.006;2023-02-03T14:26:21;9.48;;;2.65;;
29416;SDS011;28421;51.030;4.006;2023-02-03T14:28:57;3.88;;;2.10;;
29416;SDS011;28421;51.030;4.006;2023-02-03T14:31:24;3.85;;;1.60;;
29416;SDS011;28421;51.030;4.006;2023-02-03T14:34:00;8.50;;;2.35;;
29416;SDS011;28421;51.030;4.006;2023-02-03T14:38:52;14.55;;;3.08;;
29416;SDS011;28421;51.030;4.006;2023-02-03T14:44:07;6.15;;;1.83;;
29416;SDS011;28421;51.030;4.006;2023-02-03T14:52:26;6.30;;;2.50;;
29416;SDS011;28421;51.030;4.006;2023-02-03T14:57:46;2.90;;;1.88;;
29416;SDS011;28421;51.030;4.006;2023-02-03T15:07:56;5.18;;;2.08;;
29416;SDS011;28421;51.030;4.006;2023-02-03T15:10:25;3.78;;;2.38;;
29416;SDS011;28421;51.030;4.006;2023-02-03T15:12:55;5.18;;;1.85;;
29416;SDS011;28421;51.030;4.006;2023-02-03T15:17:55;11.38;;;3.17;;
29416;SDS011;28421;51.030;4.006;2023-02-03T15:23:01;3.65;;;1.88;;
29416;SDS011;28421;51.030;4.006;2023-02-03T15:25:28;6.88;;;1.80;;
29416;SDS011;28421;51.030;4.006;2023-02-03T15:28:09;12.32;;;2.72;;
29416;SDS011;28421;51.030;4.006;2023-02-03T15:30:35;7.43;;;2.83;;
29416;SDS011;28421;51.030;4.006;2023-02-03T15:33:06;4.88;;;2.40;;
29416;SDS011;28421;51.030;4.006;2023-02-03T15:35:37;4.95;;;2.58;;
29416;SDS011;28421;51.030;4.006;2023-02-03T15:38:06;11.35;;;2.13;;
29416;SDS011;28421;51.030;4.006;2023-02-03T15:40:40;6.38;;;2.60;;
29416;SDS011;28421;51.030;4.006;2023-02-03T15:43:20;6.72;;;2.15;;
29416;SDS011;28421;51.030;4.006;2023-02-03T15:48:34;5.18;;;2.30;;
29416;SDS011;28421;51.030;4.006;2023-02-03T15:51:10;8.65;;;3.00;;
29416;SDS011;28421;51.030;4.006;2023-02-03T15:56:28;4.18;;;2.10;;
29416;SDS011;28421;51.030;4.006;2023-02-03T15:59:05;3.92;;;2.08;;
29416;SDS011;28421;51.030;4.006;2023-02-03T16:01:48;6.65;;;2.15;;
29416;SDS011;28421;51.030;4.006;2023-02-03T16:04:14;5.72;;;1.92;;
29416;SDS011;28421;51.030;4.006;2023-02-03T16:06:43;4.28;;;2.08;;
29416;SDS011;28421;51.030;4.006;2023-02-03T16:12:13;2.95;;;1.75;;
29416;SDS011;28421;51.030;4.006;2023-02-03T16:14:42;8.45;;;2.25;;
29416;SDS011;28421;51.030;4.006;2023-02-03T16:17:25;2.47;;;2.20;;
29416;SDS011;28421;51.030;4.006;2023-02-03T16:25:19;5.57;;;2.63;;
29416;SDS011;28421;51.030;4.006;2023-02-03T16:27:57;12.40;;;2.65;;
29416;SDS011;28421;51.030;4.006;2023-02-03T16:30:54;6.15;;;2.55;;
29416;SDS011;28421;51.030;4.006;2023-02-03T16:33:42;8.20;;;2.70;;
29416;SDS011;28421;51.030;4.006;2023-02-03T16:36:28;16.52;;;3.17;;
29416;SDS011;28421;51.030;4.006;2023-02-03T16:39:12;7.18;;;2.40;;
29416;SDS011;28421;51.030;4.006;2023-02-03T16:41:57;6.47;;;2.42;;
29416;SDS011;28421;51.030;4.006;2023-02-03T16:44:42;16.38;;;2.75;;
29416;SDS011;28421;51.030;4.006;2023-02-03T16:47:27;8.30;;;3.00;;
29416;SDS011;28421;51.030;4.006;2023-02-03T16:50:14;8.38;;;3.50;;
29416;SDS011;28421;51.030;4.006;2023-02-03T16:53:02;6.53;;;2.70;;
29416;SDS011;28421;51.030;4.006;2023-02-03T16:55:28;8.98;;;3.30;;
29416;SDS011;28421;51.030;4.006;2023-02-03T16:57:53;9.70;;;2.55;;
29416;SDS011;28421;51.030;4.006;2023-02-03T17:00:19;3.70;;;2.60;;
29416;SDS011;28421;51.030;4.006;2023-02-03T17:02:47;8.82;;;2.65;;
29416;SDS011;28421;51.030;4.006;2023-02-03T17:05:15;5.00;;;2.45;;
29416;SDS011;28421;51.030;4.006;2023-02-03T17:07:41;12.95;;;2.90;;
29416;SDS011;28421;51.030;4.006;2023-02-03T17:10:07;7.63;;;3.45;;
29416;SDS011;28421;51.030;4.006;2023-02-03T17:12:33;7.35;;;2.85;;
29416;SDS011;28421;51.030;4.006;2023-02-03T17:14:59;10.75;;;4.03;;
29416;SDS011;28421;51.030;4.006;2023-02-03T17:17:24;6.90;;;2.63;;
29416;SDS011;28421;51.030;4.006;2023-02-03T17:19:51;13.93;;;3.55;;
29416;SDS011;28421;51.030;4.006;2023-02-03T17:22:16;9.35;;;2.65;;
29416;SDS011;28421;51.030;4.006;2023-02-03T17:24:42;8.38;;;3.00;;
29416;SDS011;28421;51.030;4.006;2023-02-03T17:27:07;3.72;;;2.78;;
29416;SDS011;28421;51.030;4.006;2023-02-03T17:29:32;4.90;;;2.60;;
29416;SDS011;28421;51.030;4.006;2023-02-03T17:31:58;17.58;;;4.68;;
29416;SDS011;28421;51.030;4.006;2023-02-03T17:34:23;7.13;;;3.55;;
29416;SDS011;28421;51.030;4.006;2023-02-03T17:36:49;10.68;;;3.45;;
29416;SDS011;28421;51.030;4.006;2023-02-03T17:39:14;8.45;;;3.65;;
29416;SDS011;28421;51.030;4.006;2023-02-03T17:41:39;13.63;;;3.50;;
29416;SDS011;28421;51.030;4.006;2023-02-03T17:44:05;7.28;;;3.38;;
29416;SDS011;28421;51.030;4.006;2023-02-03T17:46:31;5.15;;;3.35;;
29416;SDS011;28421;51.030;4.006;2023-02-03T17:48:56;7.53;;;3.80;;
29416;SDS011;28421;51.030;4.006;2023-02-03T17:51:22;6.03;;;3.47;;
29416;SDS011;28421;51.030;4.006;2023-02-03T17:53:50;5.70;;;3.00;;
29416;SDS011;28421;51.030;4.006;2023-02-03T17:56:17;9.43;;;3.17;;
29416;SDS011;28421;51.030;4.006;2023-02-03T17:58:45;9.63;;;4.38;;
29416;SDS011;28421;51.030;4.006;2023-02-03T18:03:44;8.27;;;3.50;;
29416;SDS011;28421;51.030;4.006;2023-02-03T18:06:12;8.70;;;4.13;;
29416;SDS011;28421;51.030;4.006;2023-02-03T18:08:41;10.85;;;3.70;;
29416;SDS011;28421;51.030;4.006;2023-02-03T18:11:18;9.75;;;3.53;;
29416;SDS011;28421;51.030;4.006;2023-02-03T18:13:48;7.05;;;3.38;;
29416;SDS011;28421;51.030;4.006;2023-02-03T18:16:15;6.35;;;3.67;;
29416;SDS011;28421;51.030;4.006;2023-02-03T18:18:44;7.53;;;3.83;;
29416;SDS011;28421;51.030;4.006;2023-02-03T18:21:11;6.47;;;3.50;;
29416;SDS011;28421;51.030;4.006;2023-02-03T18:23:37;10.98;;;4.18;;
29416;SDS011;28421;51.030;4.006;2023-02-03T18:26:04;8.63;;;3.45;;
29416;SDS011;28421;51.030;4.006;2023-02-03T18:28:31;9.52;;;3.88;;
29416;SDS011;28421;51.030;4.006;2023-02-03T18:30:59;12.07;;;4.40;;
29416;SDS011;28421;51.030;4.006;2023-02-03T18:33:28;8.23;;;3.22;;
29416;SDS011;28421;51.030;4.006;2023-02-03T18:35:57;7.45;;;3.17;;
29416;SDS011;28421;51.030;4.006;2023-02-03T18:38:25;8.77;;;3.35;;
29416;SDS011;28421;51.030;4.006;2023-02-03T18:41:04;10.20;;;3.75;;
29416;SDS011;28421;51.030;4.006;2023-02-03T18:43:31;11.23;;;4.25;;
29416;SDS011;28421;51.030;4.006;2023-02-03T18:45:56;9.30;;;3.47;;
29416;SDS011;28421;51.030;4.006;2023-02-03T18:48:22;14.30;;;4.93;;
29416;SDS011;28421;51.030;4.006;2023-02-03T18:50:55;8.07;;;3.85;;
29416;SDS011;28421;51.030;4.006;2023-02-03T18:53:20;10.55;;;3.95;;
29416;SDS011;28421;51.030;4.006;2023-02-03T18:55:46;8.20;;;4.57;;
29416;SDS011;28421;51.030;4.006;2023-02-03T18:58:11;6.97;;;3.80;;
29416;SDS011;28421;51.030;4.006;2023-02-03T19:00:37;10.93;;;4.13;;
29416;SDS011;28421;51.030;4.006;2023-02-03T19:03:03;7.82;;;4.13;;
29416;SDS011;28421;51.030;4.006;2023-02-03T19:05:29;10.68;;;4.47;;
29416;SDS011;28421;51.030;4.006;2023-02-03T19:07:55;12.35;;;4.00;;
29416;SDS011;28421;51.030;4.006;2023-02-03T19:10:20;13.82;;;5.13;;
29416;SDS011;28421;51.030;4.006;2023-02-03T19:13:06;13.02;;;4.75;;
29416;SDS011;28421;51.030;4.006;2023-02-03T19:15:32;16.50;;;5.97;;
29416;SDS011;28421;51.030;4.006;2023-02-03T19:17:57;15.15;;;5.88;;
29416;SDS011;28421;51.030;4.006;2023-02-03T19:20:25;9.35;;;4.93;;
29416;SDS011;28421;51.030;4.006;2023-02-03T19:23:12;9.07;;;5.65;;
29416;SDS011;28421;51.030;4.006;2023-02-03T19:25:37;11.40;;;5.10;;
29416;SDS011;28421;51.030;4.006;2023-02-03T19:28:06;13.15;;;5.90;;
29416;SDS011;28421;51.030;4.006;2023-02-03T19:30:32;13.15;;;6.13;;
29416;SDS011;28421;51.030;4.006;2023-02-03T19:32:59;17.02;;;7.57;;
29416;SDS011;28421;51.030;4.006;2023-02-03T19:38:01;22.35;;;8.48;;
29416;SDS011;28421;51.030;4.006;2023-02-03T19:40:29;17.08;;;7.50;;
29416;SDS011;28421;51.030;4.006;2023-02-03T19:43:00;19.70;;;8.18;;
29416;SDS011;28421;51.030;4.006;2023-02-03T19:45:26;16.10;;;6.93;;
29416;SDS011;28421;51.030;4.006;2023-02-03T19:47:54;18.50;;;7.53;;
29416;SDS011;28421;51.030;4.006;2023-02-03T19:50:19;15.63;;;7.05;;
29416;SDS011;28421;51.030;4.006;2023-02-03T19:52:52;13.07;;;6.20;;
29416;SDS011;28421;51.030;4.006;2023-02-03T19:58:08;20.13;;;8.15;;
29416;SDS011;28421;51.030;4.006;2023-02-03T20:00:49;15.48;;;7.28;;
29416;SDS011;28421;51.030;4.006;2023-02-03T20:03:50;13.43;;;7.45;;
29416;SDS011;28421;51.030;4.006;2023-02-03T20:06:38;11.35;;;7.25;;
29416;SDS011;28421;51.030;4.006;2023-02-03T20:16:10;15.40;;;7.18;;
29416;SDS011;28421;51.030;4.006;2023-02-03T20:18:51;15.15;;;7.95;;
29416;SDS011;28421;51.030;4.006;2023-02-03T20:21:54;21.95;;;8.05;;
29416;SDS011;28421;51.030;4.006;2023-02-03T20:25:21;18.60;;;7.93;;
29416;SDS011;28421;51.030;4.006;2023-02-03T20:28:42;17.92;;;8.00;;
29416;SDS011;28421;51.030;4.006;2023-02-03T20:31:19;19.42;;;8.57;;
29416;SDS011;28421;51.030;4.006;2023-02-03T20:34:10;15.02;;;8.25;;
29416;SDS011;28421;51.030;4.006;2023-02-03T20:37:16;18.35;;;7.90;;
29416;SDS011;28421;51.030;4.006;2023-02-03T20:40:42;15.23;;;8.27;;
29416;SDS011;28421;51.030;4.006;2023-02-03T20:43:43;22.23;;;8.82;;
29416;SDS011;28421;51.030;4.006;2023-02-03T20:50:45;14.55;;;8.38;;
29416;SDS011;28421;51.030;4.006;2023-02-03T21:05:18;15.55;;;9.70;;
29416;SDS011;28421;51.030;4.006;2023-02-03T21:08:47;24.90;;;10.43;;
29416;SDS011;28421;51.030;4.006;2023-02-03T21:15:34;22.58;;;11.88;;
29416;SDS011;28421;51.030;4.006;2023-02-03T21:18:54;16.13;;;10.23;;
29416;SDS011;28421;51.030;4.006;2023-02-03T21:22:18;21.75;;;9.43;;
29416;SDS011;28421;51.030;4.006;2023-02-03T21:25:33;23.13;;;10.43;;
29416;SDS011;28421;51.030;4.006;2023-02-03T21:28:16;19.20;;;10.85;;
29416;SDS011;28421;51.030;4.006;2023-02-03T21:31:02;16.52;;;10.43;;
29416;SDS011;28421;51.030;4.006;2023-02-03T21:34:01;17.52;;;10.35;;
29416;SDS011;28421;51.030;4.006;2023-02-03T21:47:25;19.00;;;10.18;;
29416;SDS011;28421;51.030;4.006;2023-02-03T21:50:01;20.33;;;11.50;;
29416;SDS011;28421;51.030;4.006;2023-02-03T22:05:43;22.17;;;11.05;;
29416;SDS011;28421;51.030;4.006;2023-02-03T22:08:14;25.00;;;10.18;;
29416;SDS011;28421;51.030;4.006;2023-02-03T22:10:47;21.38;;;10.75;;
29416;SDS011;28421;51.030;4.006;2023-02-03T22:13:13;36.30;;;12.60;;
29416;SDS011;28421;51.030;4.006;2023-02-03T22:15:39;16.80;;;10.23;;
29416;SDS011;28421;51.030;4.006;2023-02-03T22:18:05;21.05;;;9.50;;
29416;SDS011;28421;51.030;4.006;2023-02-03T22:20:31;14.40;;;9.38;;
29416;SDS011;28421;51.030;4.006;2023-02-03T22:22:56;22.17;;;10.05;;
29416;SDS011;28421;51.030;4.006;2023-02-03T22:25:22;30.83;;;10.40;;
29416;SDS011;28421;51.030;4.006;2023-02-03T22:27:47;18.17;;;10.48;;
29416;SDS011;28421;51.030;4.006;2023-02-03T22:30:13;19.45;;;9.82;;
29416;SDS011;28421;51.030;4.006;2023-02-03T22:32:40;15.82;;;9.27;;
29416;SDS011;28421;51.030;4.006;2023-02-03T22:35:05;17.88;;;9.18;;
29416;SDS011;28421;51.030;4.006;2023-02-03T22:37:33;27.30;;;9.90;;
29416;SDS011;28421;51.030;4.006;2023-02-03T22:39:58;19.60;;;9.02;;
29416;SDS011;28421;51.030;4.006;2023-02-03T22:42:24;15.27;;;9.80;;
29416;SDS011;28421;51.030;4.006;2023-02-03T22:44:49;24.20;;;9.45;;
29416;SDS011;28421;51.030;4.006;2023-02-03T22:47:15;16.45;;;9.00;;
29416;SDS011;28421;51.030;4.006;2023-02-03T22:49:40;19.08;;;8.07;;
29416;SDS011;28421;51.030;4.006;2023-02-03T22:52:05;16.20;;;9.05;;
29416;SDS011;28421;51.030;4.006;2023-02-03T22:54:31;13.20;;;8.43;;
29416;SDS011;28421;51.030;4.006;2023-02-03T22:56:56;20.77;;;10.23;;
29416;SDS011;28421;51.030;4.006;2023-02-03T22:59:22;24.15;;;9.70;;
29416;SDS011;28421;51.030;4.006;2023-02-03T23:01:47;17.35;;;9.32;;
29416;SDS011;28421;51.030;4.006;2023-02-03T23:04:13;13.73;;;8.75;;
29416;SDS011;28421;51.030;4.006;2023-02-03T23:06:38;16.90;;;8.75;;
29416;SDS011;28421;51.030;4.006;2023-02-03T23:09:03;16.90;;;8.90;;
29416;SDS011;28421;51.030;4.006;2023-02-03T23:11:29;21.27;;;9.50;;
29416;SDS011;28421;51.030;4.006;2023-02-03T23:13:54;23.05;;;10.32;;
29416;SDS011;28421;51.030;4.006;2023-02-03T23:16:20;20.98;;;9.18;;
29416;SDS011;28421;51.030;4.006;2023-02-03T23:18:45;20.10;;;8.57;;
29416;SDS011;28421;51.030;4.006;2023-02-03T23:21:11;15.00;;;8.63;;